Time;durP1;ratioP1;P1;durP2;ratioP2;P2;SDS_P1;SDS_P2;PMS_P1;PMS_P2;Temp;Humidity;BMP_temperature;BMP_pressure;BME280_temperature;BME280_humidity;BME280_pressure;Samples;Min_cycle;Max_cycle;Signal;HPM_P1;HPM_P2
2024/01/09 00:01:27;;;;;;;5.83;5.30;;;;;;;-3.45;57.51;103194.94;5091851;28;20475;-59
2024/01/09 00:03:53;;;;;;;6.03;5.43;;;;;;;-3.48;57.21;103194.84;5095474;28;20440;-59
2024/01/09 00:06:19;;;;;;;10.20;6.07;;;;;;;-3.58;57.24;103176.31;5090639;28;20119;-59
2024/01/09 00:08:45;;;;;;;6.40;5.77;;;;;;;-3.47;57.56;103195.72;5091073;28;20028;-59
2024/01/09 00:11:14;;;;;;;7.93;5.83;;;;;;;-3.51;58.03;103181.72;5091983;28;20089;-59
2024/01/09 00:13:40;;;;;;;7.43;6.00;;;;;;;-3.49;57.70;103185.28;5091205;28;20111;-59
2024/01/09 00:16:05;;;;;;;6.63;5.93;;;;;;;-3.48;58.03;103196.56;5091212;28;20036;-59
2024/01/09 00:18:31;;;;;;;7.30;6.30;;;;;;;-3.49;57.93;103189.59;5091862;28;20035;-59
2024/01/09 00:20:59;;;;;;;7.87;6.23;;;;;;;-3.51;57.48;103184.34;5093494;28;20020;-59
2024/01/09 00:23:27;;;;;;;6.27;5.67;;;;;;;-3.51;58.04;103184.34;5092360;28;20028;-59
2024/01/09 00:25:52;;;;;;;6.80;5.60;;;;;;;-3.60;58.70;103165.81;5091575;28;20039;-59
2024/01/09 00:28:17;;;;;;;8.63;6.80;;;;;;;-3.49;58.42;103185.28;5090490;28;20302;-59
2024/01/09 00:30:43;;;;;;;7.37;6.10;;;;;;;-3.49;58.19;103177.47;5091697;28;20032;-59
2024/01/09 00:33:08;;;;;;;6.13;5.53;;;;;;;-3.47;58.71;103188.81;5092157;28;20020;-59
2024/01/09 00:35:34;;;;;;;6.53;5.77;;;;;;;-3.47;58.90;103185.31;5091323;28;20530;-59
2024/01/09 00:37:59;;;;;;;6.67;6.00;;;;;;;-3.48;58.56;103184.44;5090201;28;20379;-59
2024/01/09 00:40:25;;;;;;;6.63;6.00;;;;;;;-3.51;58.32;103183.47;5091135;28;20028;-59
2024/01/09 00:42:50;;;;;;;7.00;6.30;;;;;;;-3.55;58.14;103182.47;5091551;28;20054;-59
2024/01/09 00:45:15;;;;;;;7.27;5.80;;;;;;;-3.59;58.52;103177.09;5091250;28;20036;-59
2024/01/09 00:47:41;;;;;;;6.77;5.50;;;;;;;-3.84;58.52;103136.44;5089641;28;20020;-59
2024/01/09 00:50:07;;;;;;;6.97;5.93;;;;;;;-3.64;58.71;103176.97;5091196;28;20038;-59
2024/01/09 00:52:32;;;;;;;7.33;6.40;;;;;;;-3.76;58.85;103164.44;5091681;28;20119;-59
2024/01/09 00:54:57;;;;;;;9.27;5.90;;;;;;;-3.73;59.35;103171.47;5091016;28;20270;-59
2024/01/09 00:57:23;;;;;;;10.67;6.50;;;;;;;-3.71;59.38;103162.00;5091263;28;20051;-59
2024/01/09 00:59:48;;;;;;;7.73;5.57;;;;;;;-3.60;59.04;103184.03;5090806;28;20032;-59
2024/01/09 01:02:14;;;;;;;8.10;5.97;;;;;;;-3.58;58.78;103184.09;5091140;28;20052;-59
2024/01/09 01:04:39;;;;;;;7.03;5.27;;;;;;;-3.59;58.42;103182.31;5089735;28;20030;-59
2024/01/09 01:07:05;;;;;;;7.17;5.77;;;;;;;-3.63;58.73;103178.72;5090817;28;20095;-59
2024/01/09 01:09:30;;;;;;;7.83;6.53;;;;;;;-3.65;59.08;103180.38;5089361;28;20040;-59
2024/01/09 01:11:56;;;;;;;6.97;5.57;;;;;;;-3.63;59.64;103180.47;5091043;28;20020;-59
2024/01/09 01:14:23;;;;;;;8.00;6.10;;;;;;;-3.63;59.13;103178.72;5090997;28;20028;-59
2024/01/09 01:16:49;;;;;;;6.23;5.63;;;;;;;-3.60;59.34;103186.63;5090568;28;20054;-59
2024/01/09 01:19:14;;;;;;;7.77;6.23;;;;;;;-3.64;59.45;103171.78;5090722;28;20056;-59
2024/01/09 01:21:40;;;;;;;7.07;6.13;;;;;;;-3.68;58.73;103175.09;5090963;28;20048;-59
2024/01/09 01:24:05;;;;;;;6.73;5.50;;;;;;;-3.81;59.16;103165.13;5090234;28;20170;-59
2024/01/09 01:26:31;;;;;;;5.57;5.07;;;;;;;-3.72;59.45;103188.84;5090106;28;20478;-59
2024/01/09 01:28:56;;;;;;;6.00;5.40;;;;;;;-3.75;59.74;103181.81;5090399;28;20035;-59
2024/01/09 01:31:21;;;;;;;7.20;5.90;;;;;;;-3.76;59.40;103173.97;5090538;28;20035;-59
2024/01/09 01:33:47;;;;;;;6.67;5.53;;;;;;;-3.77;59.55;103188.66;5090105;28;20020;-58
2024/01/09 01:36:17;;;;;;;7.03;5.90;;;;;;;-3.89;59.51;103175.25;5089418;28;20034;-59
2024/01/09 01:38:43;;;;;;;6.78;5.95;;;;;;;-3.76;59.62;103203.44;5090571;28;20047;-59
2024/01/09 01:41:08;;;;;;;6.30;5.70;;;;;;;-3.77;59.45;103205.97;5090296;28;20042;-59
2024/01/09 01:43:34;;;;;;;7.60;5.30;;;;;;;-3.81;59.59;103185.94;5090333;28;20119;-59
2024/01/09 01:45:59;;;;;;;6.27;5.60;;;;;;;-3.77;59.87;103192.97;5090094;28;20398;-59
2024/01/09 01:48:25;;;;;;;7.63;5.77;;;;;;;-3.86;59.43;103184.88;5088924;28;20020;-59
2024/01/09 01:50:50;;;;;;;7.70;6.07;;;;;;;-3.82;59.62;103195.44;5090424;28;20020;-59
2024/01/09 01:53:17;;;;;;;7.67;5.70;;;;;;;-3.87;59.92;103186.59;5089108;28;20478;-59
2024/01/09 01:55:43;;;;;;;5.80;5.30;;;;;;;-3.94;59.80;103179.41;5089548;28;20138;-59
2024/01/09 01:58:09;;;;;;;6.17;5.57;;;;;;;-3.92;60.07;103185.53;5088296;28;20119;-59
2024/01/09 02:00:36;;;;;;;7.13;5.73;;;;;;;-3.91;60.32;103180.41;5088825;28;20024;-59
2024/01/09 02:03:02;;;;;;;5.40;5.00;;;;;;;-3.86;60.01;103187.47;5090025;28;20032;-59
2024/01/09 02:05:29;;;;;;;6.27;5.67;;;;;;;-3.89;59.48;103189.13;5090444;28;20104;-59
2024/01/09 02:07:57;;;;;;;5.70;5.10;;;;;;;-3.94;60.08;103182.91;5089922;28;20555;-59
2024/01/09 02:10:23;;;;;;;6.37;5.57;;;;;;;-3.98;59.41;103175.81;5091217;28;20024;-59
2024/01/09 02:12:48;;;;;;;7.57;5.37;;;;;;;-3.89;59.73;103190.84;5089132;28;20152;-59
2024/01/09 02:15:14;;;;;;;6.33;5.67;;;;;;;-3.89;60.36;103189.13;5090214;28;20039;-59
2024/01/09 02:17:40;;;;;;;6.50;5.67;;;;;;;-3.90;60.02;103184.78;5090081;28;20023;-59
2024/01/09 02:20:06;;;;;;;7.10;5.70;;;;;;;-3.98;59.49;103181.00;5088588;28;20403;-59
2024/01/09 02:22:31;;;;;;;6.10;5.50;;;;;;;-3.99;59.87;103180.97;5090242;28;20394;-59
2024/01/09 02:24:57;;;;;;;8.50;5.90;;;;;;;-4.02;60.28;103179.16;5089427;28;20027;-58
2024/01/09 02:27:47;;;;;;;10.07;5.77;;;;;;;-4.02;60.05;103180.88;5089469;28;20032;-59
2024/01/09 02:30:13;;;;;;;8.33;5.60;;;;;;;-4.05;60.14;103176.44;5089414;28;20032;-59
2024/01/09 02:32:38;;;;;;;6.57;5.97;;;;;;;-4.07;59.89;103166.84;5089139;28;20028;-59
2024/01/09 02:35:04;;;;;;;6.40;5.80;;;;;;;-4.05;60.38;103180.78;5089756;28;20044;-59
2024/01/09 02:37:32;;;;;;;7.10;6.00;;;;;;;-4.12;60.56;103161.47;5087135;28;20028;-59
2024/01/09 02:40:02;;;;;;;5.40;4.90;;;;;;;-4.08;61.16;103165.94;5088735;28;20024;-59
2024/01/09 02:42:28;;;;;;;6.00;5.40;;;;;;;-4.10;60.96;103178.00;5072161;28;20458;-59
2024/01/09 02:44:56;;;;;;;7.33;5.90;;;;;;;-4.13;60.79;103175.28;5089643;28;20051;-59
2024/01/09 02:47:22;;;;;;;6.60;5.90;;;;;;;-4.15;60.95;103176.94;5089748;28;20055;-59
2024/01/09 02:49:47;;;;;;;7.10;5.40;;;;;;;-4.15;61.25;103174.34;5087920;28;20463;-59
2024/01/09 02:52:13;;;;;;;6.10;5.43;;;;;;;-4.12;61.31;103174.44;5090097;28;20027;-59
2024/01/09 02:54:38;;;;;;;5.97;5.50;;;;;;;-4.17;61.73;103161.31;5088842;28;20024;-59
2024/01/09 02:57:04;;;;;;;5.77;5.10;;;;;;;-4.21;61.72;103153.34;5088844;28;20078;-59
2024/01/09 02:59:29;;;;;;;8.17;5.40;;;;;;;-4.41;61.54;103122.38;5089652;28;20097;-59
2024/01/09 03:01:55;;;;;;;7.27;5.57;;;;;;;-4.14;61.95;103155.34;5088909;28;20094;-59
2024/01/09 03:04:20;;;;;;;6.10;5.23;;;;;;;-4.14;61.61;103158.81;5090131;28;20085;-59
2024/01/09 03:06:46;;;;;;;8.47;6.50;;;;;;;-4.20;61.78;103144.75;5089685;28;20046;-59
2024/01/09 03:09:11;;;;;;;6.40;5.60;;;;;;;-4.19;61.17;103156.91;5089444;28;20043;-59
2024/01/09 03:11:37;;;;;;;6.33;5.73;;;;;;;-4.24;61.46;103153.25;5090594;28;20016;-59
2024/01/09 03:14:02;;;;;;;8.20;5.77;;;;;;;-4.23;61.92;103157.63;5093708;28;20398;-59
2024/01/09 03:16:28;;;;;;;7.23;5.53;;;;;;;-4.23;62.25;103157.63;5093683;28;20064;-59
2024/01/09 03:18:53;;;;;;;7.90;5.37;;;;;;;-4.22;61.82;103156.78;5091865;28;20428;-59
2024/01/09 03:21:19;;;;;;;7.50;5.47;;;;;;;-4.19;61.96;103154.28;5093347;28;20020;-59
2024/01/09 03:23:44;;;;;;;6.13;5.53;;;;;;;-4.21;62.13;103156.81;5072295;28;20024;-59
2024/01/09 03:26:09;;;;;;;7.10;6.10;;;;;;;-4.26;62.29;103161.00;5091087;28;20479;-59
2024/01/09 03:28:37;;;;;;;10.27;6.20;;;;;;;-4.27;62.48;103159.22;5092704;28;20024;-60
2024/01/09 03:31:03;;;;;;;6.70;5.87;;;;;;;-4.30;62.48;103155.63;5091452;28;20479;-59
2024/01/09 03:33:29;;;;;;;7.73;5.33;;;;;;;-4.38;62.65;103143.25;5092829;28;20123;-59
2024/01/09 03:35:54;;;;;;;7.77;5.87;;;;;;;-4.31;62.92;103148.69;5092297;28;20043;-59
2024/01/09 03:38:19;;;;;;;9.43;5.60;;;;;;;-4.36;62.93;103151.09;5092728;28;20040;-59
2024/01/09 03:40:45;;;;;;;6.70;5.20;;;;;;;-4.40;63.16;103147.50;5091717;28;20051;-59
2024/01/09 03:43:11;;;;;;;8.80;5.57;;;;;;;-4.36;63.43;103145.91;5091462;28;20475;-59
2024/01/09 03:45:36;;;;;;;8.63;5.37;;;;;;;-4.34;63.51;103146.84;5091886;28;20020;-59
2024/01/09 03:48:02;;;;;;;6.97;5.47;;;;;;;-4.34;63.52;103144.25;5092311;28;20069;-59
2024/01/09 03:50:27;;;;;;;6.17;5.57;;;;;;;-4.38;63.74;103147.59;5092209;28;20470;-59
2024/01/09 03:52:53;;;;;;;6.63;5.37;;;;;;;-4.37;63.26;103155.41;5092640;28;20024;-59
2024/01/09 03:55:18;;;;;;;9.43;6.20;;;;;;;-4.42;62.92;103153.47;5091373;28;20093;-59
2024/01/09 03:57:43;;;;;;;6.23;5.63;;;;;;;-4.44;63.54;103148.25;5090693;28;20024;-59
2024/01/09 04:00:09;;;;;;;8.37;5.47;;;;;;;-4.41;64.12;103150.03;5091905;28;20024;-59
2024/01/09 04:02:35;;;;;;;7.33;5.83;;;;;;;-4.44;64.39;103153.44;5092075;28;20028;-60
2024/01/09 04:05:05;;;;;;;8.30;5.87;;;;;;;-4.44;64.30;103150.84;5091408;28;20425;-59
2024/01/09 04:07:30;;;;;;;;;;;;;;;-4.42;64.03;103156.94;5092769;28;20028;-59
2024/01/09 04:09:56;;;;;;;15.23;7.27;;;;;;;-4.43;63.89;103152.59;5089909;28;19923;-59
2024/01/09 04:12:21;;;;;;;6.53;5.67;;;;;;;-4.44;63.94;103150.84;5090955;28;20031;-59
2024/01/09 04:14:49;;;;;;;6.77;6.07;;;;;;;-4.53;64.40;103126.22;5090762;28;20060;-59
2024/01/09 04:17:15;;;;;;;7.17;5.83;;;;;;;-4.49;63.54;103131.59;5092424;28;20531;-59
2024/01/09 04:19:40;;;;;;;5.77;5.27;;;;;;;-4.50;63.89;103136.72;5092056;28;20028;-59
2024/01/09 04:22:06;;;;;;;6.37;5.70;;;;;;;-4.53;64.16;103128.81;5091894;28;20122;-59
2024/01/09 04:24:33;;;;;;;7.00;5.93;;;;;;;-4.46;64.54;103144.69;5090813;28;20024;-59
2024/01/09 04:27:01;;;;;;;5.93;5.43;;;;;;;-4.49;64.76;103142.00;5091549;28;20028;-59
2024/01/09 04:29:26;;;;;;;6.70;5.57;;;;;;;-4.51;64.13;103151.44;5091903;28;20031;-59
2024/01/09 04:31:52;;;;;;;5.73;5.13;;;;;;;-4.54;64.84;103142.66;5091811;28;20032;-59
2024/01/09 04:34:17;;;;;;;5.77;5.27;;;;;;;-4.47;64.80;103152.41;5090733;28;20040;-59
2024/01/09 04:36:43;;;;;;;7.93;6.23;;;;;;;-4.47;64.27;103163.72;5091101;28;20028;-59
2024/01/09 04:39:08;;;;;;;6.23;5.53;;;;;;;-4.48;64.44;103153.25;5091853;28;20031;-59
2024/01/09 04:41:33;;;;;;;7.30;5.67;;;;;;;-4.48;65.07;103158.44;5091039;28;20022;-59
2024/01/09 04:43:59;;;;;;;7.07;6.30;;;;;;;-4.58;64.41;103134.75;5091738;28;20032;-59
2024/01/09 04:46:24;;;;;;;7.53;5.47;;;;;;;-4.56;64.48;103150.38;5090354;28;20467;-59
2024/01/09 04:48:50;;;;;;;6.30;5.50;;;;;;;-4.60;64.74;103149.38;5089957;28;20140;-59
2024/01/09 04:51:15;;;;;;;7.50;6.47;;;;;;;-4.59;64.12;103150.25;5090798;28;20111;-59
2024/01/09 04:53:41;;;;;;;6.30;5.70;;;;;;;-4.66;64.42;103143.97;5091059;28;20069;-59
2024/01/09 04:56:09;;;;;;;6.83;5.93;;;;;;;-4.62;64.75;103158.84;5090217;28;20031;-59
2024/01/09 04:58:35;;;;;;;7.03;5.97;;;;;;;-4.68;64.94;103150.81;5089596;28;20020;-59
2024/01/09 05:01:00;;;;;;;6.37;4.90;;;;;;;-4.65;64.72;103157.81;5090642;28;20481;-59
2024/01/09 05:03:26;;;;;;;6.13;5.60;;;;;;;-4.65;65.04;103157.81;5093325;28;20024;-59
2024/01/09 05:05:51;;;;;;;6.97;5.70;;;;;;;-4.74;65.25;103139.31;5091656;28;20099;-59
2024/01/09 05:08:17;;;;;;;5.93;5.37;;;;;;;-4.76;64.96;103134.09;5089738;28;20119;-59
2024/01/09 05:10:42;;;;;;;6.80;6.10;;;;;;;-4.76;65.35;103123.69;5089174;28;20098;-59
2024/01/09 05:13:09;;;;;;;5.73;5.23;;;;;;;-4.65;65.01;103144.84;5090964;28;20510;-59
2024/01/09 05:15:34;;;;;;;8.87;6.50;;;;;;;-4.62;65.35;103152.75;5091109;28;20024;-59
2024/01/09 05:18:01;;;;;;;8.03;5.60;;;;;;;-4.62;64.86;103148.47;5091178;28;20050;-59
2024/01/09 05:20:28;;;;;;;8.07;5.67;;;;;;;-4.62;64.47;103145.88;5090606;28;20089;-59
2024/01/09 05:22:55;;;;;;;7.83;6.00;;;;;;;-4.65;64.33;103158.69;5090559;28;20123;-59
2024/01/09 05:25:20;;;;;;;8.13;6.30;;;;;;;-4.69;64.17;103158.56;5090500;28;20028;-59
2024/01/09 05:27:45;;;;;;;9.23;6.20;;;;;;;-4.71;65.27;103157.59;5090809;28;20034;-59
2024/01/09 05:30:11;;;;;;;8.63;6.13;;;;;;;-4.70;64.92;103164.59;5090874;28;20080;-59
2024/01/09 05:32:37;;;;;;;7.73;5.37;;;;;;;-4.69;65.06;103161.16;5090661;28;20024;-59
2024/01/09 05:35:02;;;;;;;8.77;5.43;;;;;;;-4.74;64.72;103145.38;5090532;28;20119;-59
2024/01/09 05:37:28;;;;;;;9.63;6.10;;;;;;;-4.70;64.68;103152.47;5089468;28;20024;-59
2024/01/09 05:39:53;;;;;;;6.10;5.50;;;;;;;-4.70;65.17;103151.59;5088507;28;20178;-59
2024/01/09 05:42:19;;;;;;;7.97;6.07;;;;;;;-4.77;64.80;103132.31;5090352;28;20490;-59
2024/01/09 05:44:46;;;;;;;6.27;5.67;;;;;;;-4.73;64.83;103138.50;5088756;28;20441;-59
2024/01/09 05:47:14;;;;;;;7.60;6.17;;;;;;;-4.72;64.99;103146.34;5090040;28;20028;-60
2024/01/09 05:49:41;;;;;;;7.00;6.30;;;;;;;-4.69;64.59;103153.34;5088455;28;20021;-59
2024/01/09 05:52:07;;;;;;;8.10;5.87;;;;;;;-4.72;65.17;103142.88;5090478;28;20020;-59
2024/01/09 05:54:32;;;;;;;7.63;5.90;;;;;;;-4.81;64.86;103133.91;5090236;28;20039;-59
2024/01/09 05:56:58;;;;;;;7.63;6.20;;;;;;;-4.76;64.92;103143.56;5090258;28;20506;-59
2024/01/09 05:59:23;;;;;;;7.17;6.27;;;;;;;-4.78;65.84;103153.03;5090423;28;20050;-59
2024/01/09 06:01:49;;;;;;;8.03;6.40;;;;;;;-4.71;65.53;103153.28;5088672;28;20023;-59
2024/01/09 06:04:14;;;;;;;9.00;6.87;;;;;;;-4.71;65.53;103147.22;5090487;28;20085;-59
2024/01/09 06:06:39;;;;;;;9.43;6.93;;;;;;;-4.82;65.80;103136.47;5090048;28;20020;-59
2024/01/09 06:09:05;;;;;;;6.83;6.20;;;;;;;-4.81;65.79;103148.59;5090145;28;20103;-59
2024/01/09 06:11:31;;;;;;;6.60;5.80;;;;;;;-4.83;65.59;103150.25;5089698;28;20595;-59
2024/01/09 06:13:56;;;;;;;9.03;6.40;;;;;;;-4.86;66.00;103147.53;5090418;28;20053;-59
2024/01/09 06:16:22;;;;;;;6.93;6.27;;;;;;;-4.88;66.48;103139.72;5090329;28;20024;-59
2024/01/09 06:18:48;;;;;;;12.30;6.20;;;;;;;-4.78;66.29;103150.44;5089806;28;20038;-59
2024/01/09 06:21:14;;;;;;;7.53;6.20;;;;;;;-4.82;66.28;103141.66;5088638;28;20040;-59
2024/01/09 06:23:39;;;;;;;7.60;6.10;;;;;;;-4.82;66.35;103147.72;5090715;28;20436;-59
2024/01/09 06:26:04;;;;;;;9.03;6.93;;;;;;;-4.83;65.85;103147.66;5089435;28;20020;-59
2024/01/09 06:28:31;;;;;;;7.03;5.93;;;;;;;-4.77;65.77;103158.25;5089905;28;20024;-59
2024/01/09 06:30:57;;;;;;;10.13;6.30;;;;;;;-4.86;66.00;103148.41;5090031;28;20059;-59
2024/01/09 06:33:22;;;;;;;7.50;6.70;;;;;;;-4.79;66.37;103165.13;5090080;28;20060;-60
2024/01/09 06:35:48;;;;;;;6.53;5.83;;;;;;;-4.79;65.83;103162.53;5089545;28;20048;-59
2024/01/09 06:38:14;;;;;;;9.87;6.27;;;;;;;-4.87;66.38;103158.75;5089388;28;20398;-59
2024/01/09 06:40:39;;;;;;;8.57;6.40;;;;;;;-4.85;66.60;103165.78;5089358;28;20019;-59
2024/01/09 06:43:05;;;;;;;7.47;6.00;;;;;;;-4.85;65.98;103164.91;5088061;28;20020;-59
2024/01/09 06:45:31;;;;;;;7.43;6.07;;;;;;;-4.84;66.40;103169.25;5088553;28;20196;-59
2024/01/09 06:47:57;;;;;;;8.20;6.23;;;;;;;-4.84;66.23;103170.13;5092607;28;20032;-59
2024/01/09 06:50:22;;;;;;;8.33;6.47;;;;;;;-4.81;66.53;103180.63;5093165;28;20034;-59
2024/01/09 06:52:48;;;;;;;8.07;6.10;;;;;;;-4.86;66.26;103178.66;5093546;28;20034;-59
2024/01/09 06:55:13;;;;;;;9.73;6.10;;;;;;;-4.95;66.05;103166.22;5091882;28;20039;-59
2024/01/09 06:57:39;;;;;;;9.50;6.00;;;;;;;-4.88;66.05;103175.13;5093748;28;20467;-59
2024/01/09 07:00:05;;;;;;;10.17;7.67;;;;;;;-4.90;66.55;103182.88;5093289;28;20027;-59
2024/01/09 07:02:34;;;;;;;7.30;6.23;;;;;;;-4.93;66.63;103167.19;5092988;28;20477;-59
2024/01/09 07:05:00;;;;;;;8.00;6.47;;;;;;;-4.92;67.16;103173.25;5093305;28;20027;-59
2024/01/09 07:07:25;;;;;;;6.97;6.23;;;;;;;-4.99;66.99;103168.66;5093025;28;20027;-59
2024/01/09 07:09:51;;;;;;;7.13;5.80;;;;;;;-4.92;67.40;103173.25;5092451;28;20069;-59
2024/01/09 07:12:16;;;;;;;13.37;7.07;;;;;;;-4.93;67.05;103174.97;5096190;28;20024;-59
2024/01/09 07:14:42;;;;;;;7.97;6.30;;;;;;;-5.00;66.91;103167.75;5089405;28;20437;-59
2024/01/09 07:17:08;;;;;;;8.90;6.13;;;;;;;-4.94;66.73;103173.22;5091680;28;20028;-59
2024/01/09 07:19:33;;;;;;;7.70;6.33;;;;;;;-4.97;67.02;103178.28;5091585;28;20081;-59
2024/01/09 07:21:59;;;;;;;9.70;6.97;;;;;;;-4.95;67.35;103178.31;5092827;28;20036;-59
2024/01/09 07:24:24;;;;;;;7.23;6.20;;;;;;;-4.98;66.72;103175.63;5093462;28;20027;-59
2024/01/09 07:26:50;;;;;;;7.17;5.90;;;;;;;-5.00;67.37;103174.66;5092799;28;20112;-59
2024/01/09 07:29:18;;;;;;;8.33;6.07;;;;;;;-4.98;67.04;103175.63;5089290;28;20118;-60
2024/01/09 07:31:43;;;;;;;9.63;7.03;;;;;;;-4.97;67.28;103187.75;5090694;28;20119;-60
2024/01/09 07:34:09;;;;;;;8.13;6.23;;;;;;;-5.00;67.36;103185.03;5091619;28;20131;-59
2024/01/09 07:36:34;;;;;;;8.33;6.60;;;;;;;-4.99;67.25;103189.44;5090543;28;20028;-59
2024/01/09 07:39:00;;;;;;;9.33;6.37;;;;;;;-4.96;67.32;103203.41;5092600;28;20027;-59
2024/01/09 07:41:25;;;;;;;6.80;6.20;;;;;;;-4.95;67.50;103199.97;5090734;28;20027;-59
2024/01/09 07:43:51;;;;;;;7.50;6.23;;;;;;;-4.92;67.73;103209.56;5092824;28;20419;-59
2024/01/09 07:46:17;;;;;;;8.77;6.70;;;;;;;-4.92;67.73;103207.00;5092079;28;20028;-59
2024/01/09 07:48:43;;;;;;;9.90;6.57;;;;;;;-5.00;67.89;103193.69;5092174;28;20030;-59
2024/01/09 07:51:09;;;;;;;9.47;6.83;;;;;;;-5.02;67.88;103196.25;5090060;28;20024;-59
2024/01/09 07:53:34;;;;;;;7.43;6.60;;;;;;;-5.04;67.26;103189.22;5092857;28;20036;-59
2024/01/09 07:56:00;;;;;;;10.90;6.77;;;;;;;-4.92;67.51;103207.00;5092349;28;20461;-59
2024/01/09 07:58:25;;;;;;;9.27;7.13;;;;;;;-4.93;67.43;103211.28;5091625;28;20062;-59
2024/01/09 08:00:51;;;;;;;7.47;6.57;;;;;;;-4.95;67.40;103219.84;5094228;28;20073;-59
2024/01/09 08:03:16;;;;;;;10.10;7.27;;;;;;;-4.98;66.98;103209.34;5091049;28;20036;-59
2024/01/09 08:05:41;;;;;;;13.60;8.27;;;;;;;-5.00;67.13;103213.56;5092185;28;20020;-59
2024/01/09 08:08:07;;;;;;;9.20;7.73;;;;;;;-4.98;67.32;103217.13;5091090;28;20032;-59
2024/01/09 08:10:32;;;;;;;7.17;6.43;;;;;;;-5.03;67.24;103207.47;5091853;28;20020;-59
2024/01/09 08:12:58;;;;;;;10.17;7.10;;;;;;;-5.09;67.11;103203.72;5093213;28;20518;-59
2024/01/09 08:15:26;;;;;;;7.87;6.30;;;;;;;-5.07;66.77;103205.56;5093345;28;20471;-59
2024/01/09 08:17:52;;;;;;;11.43;7.07;;;;;;;-5.00;66.95;103227.44;5093287;28;20020;-59
2024/01/09 08:20:18;;;;;;;7.60;6.27;;;;;;;-4.97;67.66;103225.00;5093487;28;20485;-59
2024/01/09 08:22:43;;;;;;;8.60;6.37;;;;;;;-5.02;67.08;103213.53;5092818;28;20394;-59
2024/01/09 08:25:11;;;;;;;7.40;6.40;;;;;;;-4.96;66.99;103231.06;5093179;28;20090;-59
2024/01/09 08:27:37;;;;;;;11.83;8.00;;;;;;;-4.93;67.16;103228.59;5093642;28;20192;-59
2024/01/09 08:30:02;;;;;;;9.17;6.93;;;;;;;-4.95;66.98;103225.91;5092744;28;20111;-59
2024/01/09 08:32:28;;;;;;;11.73;7.70;;;;;;;-5.01;66.84;103210.09;5092310;28;20144;-59
2024/01/09 08:34:53;;;;;;;10.73;8.00;;;;;;;-4.94;66.74;103227.69;5091719;28;20510;-59
2024/01/09 08:37:19;;;;;;;8.73;6.90;;;;;;;-4.92;67.55;103222.56;5091341;28;20059;-59
2024/01/09 08:39:44;;;;;;;10.63;6.83;;;;;;;-4.95;67.48;103225.91;5092580;28;20028;-59
2024/01/09 08:42:10;;;;;;;11.93;7.03;;;;;;;-4.91;67.66;103232.09;5091137;28;20475;-59
2024/01/09 08:44:35;;;;;;;10.13;6.67;;;;;;;-4.98;67.77;103212.81;5092346;28;20024;-59
2024/01/09 08:47:01;;;;;;;7.63;6.83;;;;;;;-4.86;68.01;103231.44;5092697;28;20229;-60
2024/01/09 08:49:27;;;;;;;8.67;6.73;;;;;;;-4.93;67.46;103221.69;5091485;28;20020;-59
2024/01/09 08:51:53;;;;;;;12.43;8.57;;;;;;;-4.96;67.73;103228.47;5091127;28;20081;-59
2024/01/09 08:54:18;;;;;;;11.63;7.77;;;;;;;-4.97;68.62;103225.00;5092207;28;20118;-59
2024/01/09 08:56:44;;;;;;;11.77;8.07;;;;;;;-4.91;68.12;103234.69;5092113;28;20538;-59
2024/01/09 08:59:13;;;;;;;12.33;7.87;;;;;;;-4.92;67.88;103230.34;5091759;28;20115;-59
2024/01/09 09:01:38;;;;;;;10.43;7.47;;;;;;;-4.87;68.09;103237.47;5091082;28;20016;-59
2024/01/09 09:04:04;;;;;;;9.00;7.37;;;;;;;-4.92;67.88;103219.97;5092216;28;20118;-59
2024/01/09 09:06:29;;;;;;;11.60;8.10;;;;;;;-4.80;68.15;103239.47;5092737;28;20372;-59
2024/01/09 09:08:55;;;;;;;9.83;7.70;;;;;;;-4.84;67.54;103228.94;5092124;28;20078;-59
2024/01/09 09:11:20;;;;;;;9.03;7.47;;;;;;;-4.72;67.46;103244.09;5091431;28;20036;-59
2024/01/09 09:13:48;;;;;;;8.13;6.90;;;;;;;-4.71;66.92;103249.34;5091481;28;20024;-60
2024/01/09 09:16:14;;;;;;;11.17;7.63;;;;;;;-4.71;66.41;103241.53;5092011;28;20028;-59
2024/01/09 09:18:42;;;;;;;10.03;7.93;;;;;;;-4.70;66.88;103245.94;5090955;28;20079;-59
2024/01/09 09:21:07;;;;;;;9.37;7.10;;;;;;;-4.68;67.76;103243.38;5090712;28;20024;-59
2024/01/09 09:23:33;;;;;;;10.30;7.57;;;;;;;-4.57;67.29;103240.38;5091573;28;20389;-59
2024/01/09 09:25:59;;;;;;;7.57;6.80;;;;;;;-4.50;66.36;103236.31;5089296;28;20078;-59
2024/01/09 09:28:24;;;;;;;9.60;7.07;;;;;;;-4.51;66.36;103228.44;5091172;28;20078;-59
2024/01/09 09:30:50;;;;;;;9.77;7.53;;;;;;;-4.61;65.47;103207.34;5090658;28;20025;-59
2024/01/09 09:33:15;;;;;;;12.13;8.20;;;;;;;-4.45;64.49;103223.47;5090350;28;20368;-59
2024/01/09 09:35:41;;;;;;;10.47;6.83;;;;;;;-4.37;64.85;103235.94;5090986;28;20040;-59
2024/01/09 09:38:06;;;;;;;10.40;6.97;;;;;;;-4.30;64.99;103241.34;5090306;28;20024;-59
2024/01/09 09:40:32;;;;;;;9.23;7.10;;;;;;;-4.39;64.87;103222.00;5091125;28;20032;-59
2024/01/09 09:43:02;;;;;;;10.17;7.43;;;;;;;-4.28;64.42;103219.78;5090324;28;20423;-59
2024/01/09 09:45:30;;;;;;;8.20;7.30;;;;;;;-4.18;64.66;103226.19;5091657;28;20107;-59
2024/01/09 09:47:56;;;;;;;13.03;7.50;;;;;;;-4.13;64.21;103225.53;5091644;28;20474;-59
2024/01/09 09:50:22;;;;;;;9.93;7.80;;;;;;;-3.99;64.11;103230.34;5091465;28;20036;-59
2024/01/09 09:52:49;;;;;;;12.33;8.43;;;;;;;-3.95;63.24;103227.91;5091388;28;20085;-59
2024/01/09 09:55:16;;;;;;;10.40;7.47;;;;;;;-3.93;62.78;103235.78;5089653;28;20032;-59
2024/01/09 09:57:41;;;;;;;9.37;7.40;;;;;;;-3.89;62.50;103222.91;5091389;28;20032;-59
2024/01/09 10:00:08;;;;;;;10.60;7.00;;;;;;;-3.69;61.71;103227.94;5091611;28;20159;-59
2024/01/09 10:02:37;;;;;;;8.87;7.00;;;;;;;-3.59;60.89;103242.13;5091258;28;20490;-59
2024/01/09 10:05:13;;;;;;;7.47;6.63;;;;;;;-3.42;60.97;103220.16;5091305;28;20028;-59
2024/01/09 10:07:40;;;;;;;9.90;7.20;;;;;;;-3.12;60.78;103229.81;5089720;28;20069;-59
2024/01/09 10:10:07;;;;;;;8.83;6.73;;;;;;;-2.85;60.41;103216.78;5091016;28;20053;-59
2024/01/09 10:12:33;;;;;;;11.00;6.93;;;;;;;-2.66;58.85;103220.81;5091360;28;20032;-59
2024/01/09 10:15:12;;;;;;;8.40;6.63;;;;;;;-2.51;58.89;103216.94;5091441;28;20028;-59
2024/01/09 10:17:41;;;;;;;8.77;6.83;;;;;;;-2.36;57.94;103218.22;5091852;28;20477;-59
2024/01/09 10:20:10;;;;;;;8.50;6.53;;;;;;;-2.38;56.31;103199.03;5089962;28;20016;-59
2024/01/09 10:22:38;;;;;;;7.60;6.17;;;;;;;-2.28;55.86;103214.13;5093177;28;20377;-59
2024/01/09 10:25:13;;;;;;;12.17;7.43;;;;;;;-2.27;56.02;103215.88;5093146;28;20031;-59
2024/01/09 10:27:40;;;;;;;10.30;6.97;;;;;;;-2.36;56.41;103203.47;5095680;28;20410;-59
2024/01/09 10:30:10;;;;;;;12.33;6.83;;;;;;;-2.40;56.53;103214.66;5093903;28;20024;-59
2024/01/09 10:32:39;;;;;;;8.20;7.13;;;;;;;-2.32;56.18;103213.16;5095786;28;20039;-59
2024/01/09 10:35:07;;;;;;;10.20;7.30;;;;;;;-2.05;56.19;103206.94;5095185;28;20104;-59
2024/01/09 10:37:36;;;;;;;14.77;7.67;;;;;;;-1.87;54.71;103196.13;5093886;28;20168;-59
2024/01/09 10:40:04;;;;;;;8.80;6.50;;;;;;;-1.47;53.49;103204.94;5093144;28;20035;-59
2024/01/09 10:42:30;;;;;;;11.10;6.47;;;;;;;-1.05;53.19;103191.19;5095037;28;20115;-60
2024/01/09 10:44:59;;;;;;;11.37;7.10;;;;;;;-0.37;51.00;103210.06;5093651;28;20039;-60
2024/01/09 10:47:27;;;;;;;8.97;6.50;;;;;;;0.14;48.99;103192.72;5096127;28;20039;-60
2024/01/09 10:49:54;;;;;;;11.17;6.47;;;;;;;0.57;48.10;103183.88;5115013;28;20478;-60
2024/01/09 10:52:20;;;;;;;8.17;5.63;;;;;;;1.04;46.43;103191.59;5101767;28;20044;-60
2024/01/09 10:54:46;;;;;;;8.67;5.50;;;;;;;1.36;45.25;103183.28;5092789;28;20471;-61
2024/01/09 10:57:14;;;;;;;10.73;5.83;;;;;;;1.67;45.12;103181.03;5094856;28;20471;-60
2024/01/09 10:59:40;;;;;;;11.60;6.30;;;;;;;2.07;44.10;103163.09;5093704;28;20024;-60
2024/01/09 11:02:13;;;;;;;8.02;6.05;;;;;;;2.60;44.06;103174.06;5093683;28;20028;-60
2024/01/09 11:04:39;;;;;;;9.23;5.68;;;;;;;2.98;41.68;103164.69;5094648;28;20077;-60
2024/01/09 11:07:09;;;;;;;9.75;6.28;;;;;;;3.23;40.47;103168.31;5093579;28;20028;-60
2024/01/09 11:09:39;;;;;;;15.90;7.18;;;;;;;3.29;40.44;103169.22;5093159;28;20030;-61
2024/01/09 11:12:05;;;;;;;7.22;5.85;;;;;;;3.45;40.72;103154.41;5094878;28;20055;-61
2024/01/09 11:14:31;;;;;;;8.07;6.25;;;;;;;3.47;40.27;103164.91;5094866;28;20110;-60
2024/01/09 11:16:59;;;;;;;9.95;5.32;;;;;;;3.36;38.91;103152.59;5094758;28;20027;-60
2024/01/09 11:19:25;;;;;;;8.70;5.53;;;;;;;3.22;39.44;103156.03;5093422;28;20054;-60